MET'MAP v2.0
soon released !

Expected late october,
this new version will be
more efficient, smarter,
and hosted on a brand new
server x3 powerfull...
...and still free !


Not compatible ?
Try the mobile version !

LOG IN : | Subscribe | Disclaimer | Who is Orbifly ? |
ICAO code :

TAF - EGPI Islay Airport - 21 Oct 2020 07:04 UTC - Data Source NOAA   


- Airport Elevation : 56 ft
- IATA code : ILY
- No reported NOTAMs.


EGPI - Islay Airport

Latest METAR recorded : 2015/08/11 08:20 EGPI 110820Z 29006KT 9999 FEW007 BKN020 BKN046 13/11 Q1019
TAF AMD TAF EGPI
Valid from the 21 at 03:00 until the 21 at 12:00 UTC


210348Z 2103/2112 15012KT 9999 SCT008 BKN020
TEMPO 2103/2112 6000 RA BKN008
PROB30
TEMPO 2103/2112 4000 RADZ BR BKN004
BECMG 2106/2109 VRB04KT

Source NOAA


MET'MAP, your aeronautical weather chart ! - Copyright ORBIFLY December 2007

Programming & Development : Alexandra Zaïnal
Co-Developer : Marc-Olivier Méhu
Technical & hardware support : Manuel Goepfert
Concept & Financing : Baudouin d'Aumeries